Terminal Aerodrome Forecast
Issued by NWS Bismarck, ND

Home | Current Version | Previous Version | Text Only | Print | Product List | Glossary On
Versions: 1 2 3 4 5 6 7 8 9 10 11 12 13 14 15 16 17 18 19 20 21
387
FTUS43 KBIS 301739
TAFBIS
TAF
KBIS 301739Z 3018/3118 13010KT P6SM VCSH BKN250
     FM301900 12010G18KT P6SM VCTS BKN060CB
      TEMPO 3020/3023 VRB20G30KT 2SM +TSRAGS SCT020 BKN040CB
     FM302300 01006KT 6SM SHRA VCTS OVC040CB
     FM310200 30007KT P6SM BKN050
     FM311600 27015G24KT P6SM VCSH BKN025=

USA.gov is the U.S. government's official web portal to all federal, state and local government web resources and services.